juin
11

MOTOCROSS FIM MX3 EN FINLANDE : MILKO POTISEK CLAQUE LA POLE

MX3 – Qualifying Race 1 – Classification
Pos Nr Rider Nat. Fed. Bike Time laps Diff. First Diff. Prev. Bestlaptime in lap Speed

1 5 Potisek, Milko FRA FFM Honda 25:10.375 14 0:00.000 0:00.000 1:46.234 5 55,06
2 2 Bill, Julien SUI FMS Honda 25:11.341 14 0:00.966 0:00.966 1:46.426 5 55,02
3 37 Söderström, Tom SWE SVEMO Suzuki 25:24.718 14 0:14.343 0:13.377 1:46.934 3 54,54
4 213 Pyrhonen, Antti FIN SML Honda 25:36.623 14 0:26.248 0:11.905 1:47.500 4 54,12
5 153 Maddii, Marco ITA FMI KTM 25:37.551 14 0:27.176 0:00.928 1:47.678 2 54,09
6 156 Freibergs, Lauris LAT LAMSF Honda 25:38.414 14 0:28.039 0:00.863 1:47.834 3 54,06
7 232 Michek, Martin CZE ACCR KTM 25:45.451 14 0:35.076 0:07.037 1:47.588 5 53,81
8 144 Lindstrom, Kim SWE SVEMO Yamaha 26:10.205 14 0:59.830 0:24.754 1:48.915 9 52,96
9 174 Zerava, Martin CZE ACCR Honda 26:11.948 14 1:01.573 0:01.743 1:50.247 4 52,90
10 27 Eriksson, Toni FIN SML Kawasaki 26:18.564 14 1:08.189 0:06.616 1:50.563 11 52,68
11 932 Lehtla, Lauri EST EMF KTM 26:22.494 14 1:12.119 0:03.930 1:49.673 12 52,55
12 45 Jousi, Atte FIN SML Yamaha 26:26.202 14 1:15.827 0:03.708 1:51.487 11 52,43
13 271 Aro, Samuli FIN SML KTM 26:29.530 14 1:19.155 0:03.328 1:51.085 10 52,32
14 133 Apfelbaums, Niks LAT LAMSF Honda 26:36.459 14 1:26.084 0:06.929 1:51.340 3 52,09
15 171 Kovalainen, Marko FIN SML Yamaha 26:38.003 14 1:27.628 0:01.544 1:52.224 10 52,04
16 38 Rouhiainen, Riku FIN SML Yamaha 26:39.697 14 1:29.322 0:01.694 1:52.041 12 51,98
17 165 Matikainen, Juuso FIN SML Honda 26:45.418 14 1:35.043 0:05.721 1:51.630 4 51,80
18 114 Uusna, Rannar EST EMF KTM 26:48.947 14 1:38.572 0:03.529 1:52.232 4 51,69
19 303 Makinen, Miika FIN SML Honda 26:50.549 14 1:40.174 0:01.602 1:51.725 2 51,63
20 74 Kaurit, Ardo EST EMF KTM 26:51.665 14 1:41.290 0:01.116 1:52.740 5 51,60
21 49 Heimonen, Joonas FIN SML Husqvarna 26:54.890 14 1:44.515 0:03.225 1:52.321 6 51,50
22 691 Gago, Adrian ESP RFME Honda 25:10.931 13 1 lap 1 lap 1:51.984 2 51,11
23 67 Michalec, Petr CZE ACCR Honda 25:27.994 13 1 lap 0:17.063 1:53.589 2 50,54
24 44 Stigell, Henric FIN SML Kawasaki 25:29.413 13 1 lap 0:01.419 1:52.364 9 50,49
25 162 Staufer, Michael AUT OeAMTC KTM 25:43.915 13 1 lap 0:14.502 1:52.315 2 50,02
26 888 Fontanesi, Luca ITA FMI Yamaha 25:57.755 13 1 lap 0:13.840 1:55.845 4 49,57
27 131 Havam, Heido EST EMF KTM 26:01.541 13 1 lap 0:03.786 1:55.541 3 49,45
28 19 Arana, Txomin ESP RFME Yamaha 26:04.791 13 1 lap 0:03.250 1:56.759 2 49,35
29 125 Manninen, Seppo FIN SML Honda 26:18.424 13 1 lap 0:13.633 1:55.067 5 48,92
30 259 Buso, Mattia ITA FMI KTM 27:04.464 13 1 lap 0:46.040 1:56.804 5 47,54
31 7 Valente, Christopher SUI FMS KTM 26:33.566 12 2 laps 1 lap 1:57.186 3 44,73
32 911 Hrdinka, Tomas CZE ACCR KTM 27:08.676 11 3 laps 1 lap 2:06.128 2 40,12
33 277 Noemi, Alejandro CHL FMC Honda 15:56.658 8 6 laps 3 laps 1:55.255 5 49,67
34 352 Hauer, Stefan AUT OeAMTC KTM 10:17.104 5 9 laps 3 laps 1:57.631 3 48,13
35 41 Leinonen, Rolle FIN SML KTM 2:34.920 1 13 laps 4 laps 0:00.000 1 38,34

WMX Qualifying Race :
1 Laier, Stephanie GER, 2 Fontanesi, Chiara ITA, 3 Papenmeier, Larissa GER, 4 Pettersson, Sara SWE, 5 Nocera, Francesca ITA, 6 Borchers, Anne GER, 7 Veenstra, Marianne NED, 8 van der Wekken, Britt NED, 9 Pettersen, Marie S. NOR, 10 Miller, Joanna POL

DIMANCHE

MX3 – Warm-up – Classification
Pos Nr Rider Nat. Fed. Bike Bestlaptime in lap Diff. First Diff. Prev. Tot. Laps Speed

1 2 Bill, Julien SUI FMS Honda 1:44.023 8 0:00.000 0:00.000 8 57,10
2 37 Söderström, Tom SWE SVEMO Suzuki 1:45.178 5 0:01.155 0:01.155 6 56,48
3 213 Pyrhonen, Antti FIN SML Honda 1:45.793 7 0:01.770 0:00.615 10 56,15
4 5 Potisek, Milko FRA FFM Honda 1:46.077 10 0:02.054 0:00.284 10 56,00
5 144 Lindstrom, Kim SWE SVEMO Yamaha 1:46.436 9 0:02.413 0:00.359 9 55,81
6 232 Michek, Martin CZE ACCR KTM 1:46.576 7 0:02.553 0:00.140 9 55,73
7 27 Eriksson, Toni FIN SML Kawasaki 1:46.619 3 0:02.596 0:00.043 9 55,71
8 174 Zerava, Martin CZE ACCR Honda 1:46.982 8 0:02.959 0:00.363 9 55,52
9 156 Freibergs, Lauris LAT LAMSF Honda 1:47.129 5 0:03.106 0:00.147 9 55,45
10 45 Jousi, Atte FIN SML Yamaha 1:47.592 3 0:03.569 0:00.463 9 55,21
11 38 Rouhiainen, Riku FIN SML Yamaha 1:47.663 8 0:03.640 0:00.071 8 55,17
12 44 Stigell, Henric FIN SML Kawasaki 1:48.311 9 0:04.288 0:00.648 10 54,84
13 171 Kovalainen, Marko FIN SML Yamaha 1:48.546 5 0:04.523 0:00.235 5 54,72
14 165 Matikainen, Juuso FIN SML Honda 1:48.708 6 0:04.685 0:00.162 9 54,64
15 133 Apfelbaums, Niks LAT LAMSF Honda 1:48.868 9 0:04.845 0:00.160 9 54,56
16 162 Staufer, Michael AUT OeAMTC KTM 1:48.890 8 0:04.867 0:00.022 9 54,55
17 691 Gago, Adrian ESP RFME Honda 1:48.944 8 0:04.921 0:00.054 8 54,52
18 303 Makinen, Miika FIN SML Honda 1:49.316 4 0:05.293 0:00.372 10 54,34
19 153 Maddii, Marco ITA FMI KTM 1:49.336 5 0:05.313 0:00.020 6 54,33
20 74 Kaurit, Ardo EST EMF KTM 1:49.526 9 0:05.503 0:00.190 10 54,23
21 932 Lehtla, Lauri EST EMF KTM 1:50.313 5 0:06.290 0:00.787 5 53,85
22 7 Valente, Christopher SUI FMS KTM 1:51.092 6 0:07.069 0:00.779 9 53,47
23 888 Fontanesi, Luca ITA FMI Yamaha 1:52.022 5 0:07.999 0:00.930 8 53,03
24 41 Leinonen, Rolle FIN SML KTM 1:52.173 4 0:08.150 0:00.151 10 52,95
25 114 Uusna, Rannar EST EMF KTM 1:52.422 5 0:08.399 0:00.249 7 52,84
26 67 Michalec, Petr CZE ACCR Honda 1:52.866 5 0:08.843 0:00.444 8 52,63
27 19 Arana, Txomin ESP RFME Yamaha 1:54.176 7 0:10.153 0:01.310 9 52,02
28 125 Manninen, Seppo FIN SML Honda 1:54.415 6 0:10.392 0:00.239 7 52,08
29 277 Noemi, Alejandro CHL FMC Honda 1:54.427 5 0:10.404 0:00.012 9 51,91
30 271 Aro, Samuli FIN SML KTM 1:56.010 3 0:11.987 0:01.583 8 51,20
31 131 Havam, Heido EST EMF KTM 1:57.001 2 0:12.978 0:00.991 7 50,77
32 259 Buso, Mattia ITA FMI KTM 1:57.212 4 0:13.189 0:00.211 7 50,68
33 49 Heimonen, Joonas FIN SML Husqvarna 1:58.208 2 0:14.185 0:00.996 7 50,25
34 352 Hauer, Stefan AUT OeAMTC KTM 1:58.686 8 0:14.663 0:00.478 8 50,05
35 911 Hrdinka, Tomas CZE ACCR KTM 2:12.459 3 0:28.436 0:13.773 6 44,84

WMX – Warm-up – Classification
Pos Nr Rider Nat. Fed. Bike Bestlaptime in lap Diff. First Diff. Prev. Tot. Laps Speed

1 8 Fontanesi, Chiara ITA FMI Yamaha 1:52.325 5 0:00.000 0:00.000 6 52,88
2 423 Papenmeier, Larissa GER DMSB KTM 1:54.684 5 0:02.359 0:02.359 9 51,79
3 22 Pettersson, Sara SWE SVEMO KTM 2:00.140 6 0:07.815 0:05.456 8 49,44
4 116 Nocera, Francesca ITA FMI KTM 2:00.396 7 0:08.071 0:00.256 7 49,34
5 46 van der Wekken, Britt NED KNMV Honda 2:01.921 6 0:09.596 0:01.525 7 48,72
6 149 Veenstra, Marianne NED KNMV Suzuki 2:02.042 6 0:09.717 0:00.121 8 48,67
7 7 De Mol, Marielle NED KNMV TM 2:02.681 6 0:10.356 0:00.639 10 48,42
8 111 Borchers, Anne GER DMSB Suzuki 2:03.002 7 0:10.677 0:00.321 8 48,29
9 86 Verkade, Shirley NED KNMV KTM 2:04.669 3 0:12.344 0:01.667 6 47,65
10 43 Pettersen, Marie S. NOR NMF Yamaha 2:04.694 6 0:12.369 0:00.025 7 47,64
11 39 Rye-Holmboe, Katrine NOR NMF Honda 2:05.027 6 0:12.702 0:00.333 8 47,51
12 1 Laier, Stephanie GER DMSB KTM 2:05.307 4 0:12.982 0:00.280 8 47,40
13 118 Germond, Virginie SUI FMS Suzuki 2:06.644 6 0:14.319 0:01.337 6 46,90
14 40 Wallberg, Emmy SWE SVEMO Yamaha 2:06.745 4 0:14.420 0:00.101 8 46,87
15 93 Parrini, Floriana ITA FMI KTM 2:07.228 6 0:14.903 0:00.483 7 46,69
16 19 Miller, Joanna POL PZM KTM 2:07.414 4 0:15.089 0:00.186 9 46,62
17 66 Einarsdottir, Bryndis ISL MSI KTM 2:07.415 5 0:15.090 0:00.001 6 46,62
18 36 de Barquin, Morane BEL FMB Honda 2:07.708 5 0:15.383 0:00.293 7 46,51
19 25 Guryeva, Ekaterina RUS MFR KTM 2:11.692 4 0:19.367 0:03.984 8 45,11
20 33 Antosova, Jana CZE ACCR KTM 2:11.870 6 0:19.545 0:00.178 6 45,04
21 48 Lorca, Maria VEN FMV KTM 2:12.931 7 0:20.606 0:01.061 8 44,68
22 42 Liimatainen, Hanna-Riikka FIN SML Suzuki 2:16.049 5 0:23.724 0:03.118 6 43,66
23 102 Pillet, Florence SUI FMS KTM 2:16.192 6 0:23.867 0:00.143 8 43,61
24 120 Piladze, Inga LAT LAMSF Kawasaki 2:20.227 6 0:27.902 0:04.035 7 42,36
25 987 Lago, Erica ITA FMI Suzuki 2:21.934 6 0:29.609 0:01.707 7 41,85

A voir aussi :

Le commentaires sont fermés.